Commit graph

  • 39f3151cac Fix typo that causes google fonts to 404 master Arne Schlüter 2016-06-16 23:17:13 +05:30
  • a0a44dc6c1 Move over to https Arne Schlüter 2016-06-16 22:51:45 +05:30
  • 4e2b135ac2 Fix content type for articles Arne Schlüter 2016-03-25 23:00:40 +01:00
  • da40746d3b Add piwik snippet Arne Schlüter 2016-03-25 19:44:06 +01:00
  • 07d6a9cbaa doc updates Joshua Widmann 2015-02-19 20:48:03 +01:00
  • ed5c25f0de doc updates Joshua Widmann 2015-02-19 20:43:24 +01:00
  • 7758bd5e26 doc Joshua Widmann 2015-02-19 20:35:42 +01:00
  • 321bc62ca9 doc Joshua Widmann 2015-02-19 20:32:39 +01:00
  • 6e07ce82fe Documentation Joshua Widmann 2015-02-19 14:57:43 +01:00
  • ec474a27ea Merge branch 'master' of github.com:aesthaddicts/OpenData Arne Schlüter 2015-02-10 22:50:40 +01:00
  • 48574eb2b8 Close popups when spiderifying marker groups Arne Schlüter 2015-02-10 22:45:10 +01:00
  • f367103d0f Close popups when spiderifying marker groups Arne Schlüter 2015-02-10 22:45:10 +01:00
  • 7b907883bf Fix path that was still absolute in main.js Arne Schlüter 2015-02-10 18:39:19 +01:00
  • ac36cf6d6b Use bundled javascript file Arne Schlüter 2015-02-10 18:35:43 +01:00
  • 689aa1884a Make paths relative to current folder in frontend Arne Schlüter 2015-02-10 18:30:59 +01:00
  • b0d466ba87 Fix path for uberspace Arne Schlüter 2015-02-10 18:24:30 +01:00
  • 503673ebb9 Read port from environment variable Arne Schlüter 2015-02-10 18:11:22 +01:00
  • 75edc484de Add SQLite database Arne Schlüter 2015-02-10 17:56:27 +01:00
  • 47691c80ac Close popup when filtereing incidents Arne Schlüter 2015-02-10 17:48:08 +01:00
  • 17c2176526 Small fixes: heading on splash screen and date overlay for firefox Arne Schlüter 2015-02-09 13:40:24 +01:00
  • 2da61bf098 Position date headings fixed Arne Schlüter 2015-02-09 13:20:42 +01:00
  • 045ac83e45 Change title to "Berliner Winter" Arne Schlüter 2015-02-09 10:06:26 +01:00
  • 57083e439e Fix top margin of dates Arne Schlüter 2015-02-09 10:01:17 +01:00
  • 65a9b75e0c Style date and re-add close button Arne Schlüter 2015-02-09 09:59:01 +01:00
  • 8bcb3c62f9 Merge branch 'master' of github.com:aesthaddicts/OpenData Arne Schlüter 2015-02-09 09:49:51 +01:00
  • 88e0b27285 autoprefix style.css and better categorizing. Joshua Widmann 2015-02-09 09:49:31 +01:00
  • d259b71231 Add more information to popup windows Arne Schlüter 2015-02-09 09:49:01 +01:00
  • 6a6f282f38 Merge branch 'master' of https://github.com/aesthaddicts/OpenData Joshua Widmann 2015-02-09 09:38:01 +01:00
  • f4e1833c24 Fix popup pointer events Arne Schlüter 2015-02-09 00:55:26 +01:00
  • a7502baf7d More cosmetics Arne Schlüter 2015-02-09 00:50:33 +01:00
  • c41f7b4cf8 Fix weird clustering and change marker colors Arne Schlüter 2015-02-09 00:11:05 +01:00
  • a478a3cd77 Add splash screen Arne Schlüter 2015-02-08 23:53:01 +01:00
  • 0d984bb2ed Merge branch 'master' of https://github.com/aesthaddicts/OpenData Joshua Widmann 2015-02-08 18:47:41 +01:00
  • 06b2dd9e47 Fix filter logic Arne Schlüter 2015-02-08 18:13:04 +01:00
  • 565f01750d Merge branch 'master' of https://github.com/aesthaddicts/OpenData Joshua Widmann 2015-02-08 18:03:21 +01:00
  • c6e9f5231c Add oms.min to versioning Arne Schlüter 2015-02-08 18:02:50 +01:00
  • d4b8ced074 merged Joshua Widmann 2015-02-08 17:19:23 +01:00
  • 54de3afc00 Use OverlappingMarkerSpiderfier Arne Schlüter 2015-02-08 17:09:44 +01:00
  • 4510f01a78 Use OverlappingMarkerSpiderfier Arne Schlüter 2015-02-08 17:09:44 +01:00
  • d7d78b7fc4 Use div icons instead of circleMarkers Arne Schlüter 2015-02-08 16:53:00 +01:00
  • 29e4d599c1 Merge branch 'master' of github.com:aesthaddicts/OpenData Arne Schlüter 2015-02-08 15:49:05 +01:00
  • b94a7ff409 fixed noncategorized filter Joshua Widmann 2015-02-08 15:47:45 +01:00
  • 792f8f9447 Rewrite marker show and hide logic Arne Schlüter 2015-02-08 15:44:00 +01:00
  • fcf57354a2 Add encoding and language Arne Schlüter 2015-02-08 14:50:33 +01:00
  • 07f80c0a3f Put out linebreaks in popups Arne Schlüter 2015-02-08 12:00:37 +01:00
  • 021afeb4a0 Make sure the category legend is always readable Arne Schlüter 2015-02-08 11:42:53 +01:00
  • 04999978dc Make sure popups at the borders can still be displayed correctly and closed Arne Schlüter 2015-02-08 11:36:53 +01:00
  • b606226d99 Chain chain Arne Schlüter 2015-02-08 11:31:07 +01:00
  • 7bf461d097 Implement filter by year Arne Schlüter 2015-02-08 11:28:30 +01:00
  • a2b6e437d4 Refactor visualization into separate class Arne Schlüter 2015-02-08 10:44:10 +01:00
  • 2229d548b5 Refactor the color module Arne Schlüter 2015-02-08 09:58:07 +01:00
  • 384e9adbd7 Use JSPM for frontend JS modules Arne Schlüter 2015-02-08 03:44:05 +01:00
  • 19dc2a91a1 Mix colors when in multiple categories Arne Schlüter 2015-02-07 22:51:28 +01:00
  • 2ee455d3c4 Return uncategorized incidents as well Arne Schlüter 2015-02-07 21:58:17 +01:00
  • c186275bdb Implement filter logic Arne Schlüter 2015-02-07 21:37:11 +01:00
  • 611b97510b Restrict viewable map area area Arne Schlüter 2015-02-07 21:09:37 +01:00
  • 952f9aee96 Remove bower Arne Schlüter 2015-02-07 21:08:16 +01:00
  • 589d3f6ae9 Pointer event fix so the links receive hovers and clicks again Arne Schlüter 2015-02-07 20:57:15 +01:00
  • a30ad1fc1c Add and style category filter Arne Schlüter 2015-02-07 20:41:37 +01:00
  • 41d831b542 Yay! Arne Schlüter 2015-02-07 19:42:13 +01:00
  • eb5441876a Merge branch 'arne' Arne Schlüter 2015-02-07 19:22:23 +01:00
  • c16ba027ec Remove unused API methods Arne Schlüter 2015-02-07 19:22:20 +01:00
  • 7a961b9fc5 Massage the API response to look like what we want Arne Schlüter 2015-02-07 19:22:01 +01:00
  • 856cb0550a Fix gitignore to new folder paths Arne Schlüter 2015-02-07 19:20:30 +01:00
  • 7846dad0a8 Return only the best place for each article Arne Schlüter 2015-02-07 19:14:13 +01:00
  • 677a839012 get all articles using sqlite3 Joshua Widmann 2015-02-07 18:49:51 +01:00
  • c75a34c250 Add year picker Arne Schlüter 2015-02-07 18:45:10 +01:00
  • 155874f689 Set up serving of index.html and assets Arne Schlüter 2015-02-07 17:55:47 +01:00
  • da39c6b9dc Remove unused model strinigfication Arne Schlüter 2015-02-07 17:38:48 +01:00
  • 705472c9dc Add more server APIs Arne Schlüter 2015-02-07 17:37:27 +01:00
  • 13791c0599 Add API for location Arne Schlüter 2015-02-07 17:19:22 +01:00
  • c09a1d78a2 Use list of german nouns before geocoding Arne Schlüter 2015-02-07 14:53:27 +01:00
  • 9cbff4aa30 Add potentially interesting statistics Arne Schlüter 2015-02-07 14:53:09 +01:00
  • 430dda0cc6 Add TODO note about improvement to locator.py Arne Schlüter 2015-01-18 21:05:54 +01:00
  • 872d7b219d Improve query to the google maps geocoding api Arne Schlüter 2015-01-18 20:55:47 +01:00
  • b229e1a6c4 Add category to the database Arne Schlüter 2015-01-18 11:56:25 +01:00
  • 24ffdeb1ec Add niceness and log output to the geocoding Arne Schlüter 2015-01-18 11:22:07 +01:00
  • cb0175a7b7 Move geocoding to Google API Arne Schlüter 2015-01-17 19:12:09 +01:00
  • 13ac77b575 Improve urlencoding of location query Arne Schlüter 2015-01-17 17:48:39 +01:00
  • 41f2afcc12 Merge branch 'place_extraction' Arne Schlüter 2015-01-17 17:38:41 +01:00
  • 309cd191af Function to get longitude and latitude from certain query to OSM. Joshua Widmann 2015-01-17 17:37:18 +01:00
  • 492ea184bc Fix POS-tuple cleanup place_extraction Arne Schlüter 2015-01-17 17:36:14 +01:00
  • adb0252130 Fix bug so one potential place following another directly is also matched Arne Schlüter 2015-01-17 17:12:10 +01:00
  • 73dee66d16 Look at title and text separately Arne Schlüter 2015-01-17 16:27:53 +01:00
  • b85c84139b Start with improving the place results Arne Schlüter 2015-01-17 15:57:34 +01:00
  • 8e6032be3a Start messing around with part of speech tagging Arne Schlüter 2015-01-17 15:15:51 +01:00
  • c4711310ce Merge branch 'master' of github.com:aesthaddicts/OpenData Arne Schlüter 2015-01-17 14:42:22 +01:00
  • 4ddd3aa376 swapped '…' with '...' and removed sqlite3 import. Joshua Widmann 2015-01-17 13:58:38 +01:00
  • 06814ecae8 Start writing some analyzaton code Arne Schlüter 2015-01-17 11:45:52 +01:00
  • a9a096396b Install nltk for named entity extraction of places later on Arne Schlüter 2015-01-17 11:43:59 +01:00
  • 00f0643fff Add redis and rq as a dependency for incident analyzation Arne Schlüter 2015-01-17 11:42:38 +01:00
  • 7c4cf8f9f0 Clean up code, clarify and remove an unnecessary try-except-block Arne Schlüter 2014-12-11 00:24:41 +01:00
  • 98d1e21a90 Remove field 'addtional_place' because it can't be reliably parsed Arne Schlüter 2014-12-11 00:07:48 +01:00
  • c1ac5e5ed4 Use peewee as model and rewrite the code Arne Schlüter 2014-12-10 23:56:15 +01:00
  • 0e095dbb63 Don't forget to close the connection Arne Schlüter 2014-12-08 20:39:53 +01:00
  • 36df116ed0 Crawl all pages and insert them into the database Arne Schlüter 2014-12-08 18:25:26 +01:00
  • 5306e6dab4 Merge branch 'dev-arne' Arne Schlüter 2014-12-08 16:20:08 +01:00
  • 55a599a47b Write insertion logic for articles dev-arne Arne Schlüter 2014-12-08 16:19:18 +01:00
  • c872c8e39d renamed article attributes according to database fields Joshua Widmann 2014-12-08 15:59:33 +01:00
  • e018aead0e Add database setup code Arne Schlüter 2014-12-08 15:40:31 +01:00